createdAt,value
2018-04-30T00:01:52.751Z,8.20
2018-04-30T00:04:22.551Z,8.77
2018-04-30T00:06:52.361Z,8.13
2018-04-30T00:09:22.166Z,8.73
2018-04-30T00:11:51.973Z,8.00
2018-04-30T00:14:21.753Z,7.67
2018-04-30T00:16:51.556Z,8.10
2018-04-30T00:19:21.363Z,8.03
2018-04-30T00:21:51.235Z,7.80
2018-04-30T00:24:20.964Z,7.93
2018-04-30T00:26:50.812Z,7.87
2018-04-30T00:29:20.597Z,8.17
2018-04-30T00:31:51.173Z,7.40
2018-04-30T00:34:21.726Z,7.73
2018-04-30T00:36:51.532Z,8.73
2018-04-30T00:39:21.333Z,7.37
2018-04-30T00:41:51.890Z,7.57
2018-04-30T00:44:21.696Z,7.33
2018-04-30T00:46:51.503Z,7.60
2018-04-30T00:49:21.303Z,6.97
2018-04-30T00:51:51.117Z,7.57
2018-04-30T00:54:38.560Z,6.90
2018-04-30T00:57:08.359Z,6.87
2018-04-30T00:59:38.154Z,7.07
2018-04-30T01:02:08.723Z,7.00
2018-04-30T01:04:38.517Z,7.10
2018-04-30T01:07:08.320Z,7.33
2018-04-30T01:09:38.117Z,6.63
2018-04-30T01:12:08.681Z,7.10
2018-04-30T01:14:38.466Z,7.07
2018-04-30T01:17:08.276Z,6.97
2018-04-30T01:19:38.836Z,6.80
2018-04-30T01:22:08.644Z,7.03
2018-04-30T01:24:39.368Z,6.40
2018-04-30T01:27:09.176Z,6.60
2018-04-30T01:29:38.968Z,6.87
2018-04-30T01:32:09.553Z,6.33
2018-04-30T01:34:39.344Z,6.57
2018-04-30T01:37:09.148Z,6.90
2018-04-30T01:39:38.939Z,6.60
2018-04-30T01:42:09.505Z,7.00
2018-04-30T01:44:39.336Z,6.50
2018-04-30T01:47:09.112Z,6.70
2018-04-30T01:49:38.916Z,6.97
2018-04-30T01:52:08.728Z,6.90
2018-04-30T01:54:39.286Z,7.00
2018-04-30T01:57:09.090Z,7.63
2018-04-30T01:59:38.922Z,6.90
2018-04-30T02:02:08.732Z,7.10
2018-04-30T02:04:38.543Z,7.20
2018-04-30T02:07:08.343Z,7.17
2018-04-30T02:09:38.147Z,6.80
2018-04-30T02:12:07.956Z,7.70
2018-04-30T02:14:37.749Z,6.70
2018-04-30T02:17:08.323Z,7.87
2018-04-30T02:19:38.131Z,7.20
2018-04-30T02:22:07.927Z,7.73
2018-04-30T02:24:37.719Z,8.23
2018-04-30T02:27:07.511Z,7.40
2018-04-30T02:29:38.075Z,8.40
2018-04-30T02:32:07.878Z,8.17
2018-04-30T02:34:37.674Z,8.10
2018-04-30T02:37:08.254Z,8.10
2018-04-30T02:39:38.813Z,8.17
2018-04-30T02:42:08.627Z,8.20
2018-04-30T02:44:38.420Z,8.30
2018-04-30T02:47:08.220Z,8.23
2018-04-30T02:49:38.007Z,8.27
2018-04-30T02:52:07.807Z,8.77
2018-04-30T02:54:37.604Z,8.90
2018-04-30T02:57:08.185Z,8.87
2018-04-30T02:59:37.981Z,9.10
2018-04-30T03:02:07.776Z,8.17
2018-04-30T03:04:37.568Z,8.90
2018-04-30T03:07:08.150Z,9.83
2018-04-30T03:09:37.936Z,9.43
2018-04-30T03:12:07.738Z,8.90
2018-04-30T03:14:37.525Z,9.53
2018-04-30T03:17:08.090Z,9.33
2018-04-30T03:19:37.888Z,9.43
2018-04-30T03:22:07.689Z,9.90
2018-04-30T03:24:38.251Z,9.70
2018-04-30T03:27:08.052Z,9.80
2018-04-30T03:29:37.848Z,9.87
2018-04-30T03:32:08.420Z,10.37
2018-04-30T03:34:38.209Z,10.80
2018-04-30T03:37:08.012Z,10.70
2018-04-30T03:39:37.806Z,10.03
2018-04-30T03:42:08.378Z,10.93
2018-04-30T03:44:38.175Z,10.30
2018-04-30T03:47:07.978Z,11.40
2018-04-30T03:49:37.773Z,11.60
2018-04-30T03:52:08.360Z,11.53
2018-04-30T03:54:38.155Z,11.50
2018-04-30T03:57:07.965Z,12.00
2018-04-30T03:59:37.768Z,11.70
2018-04-30T04:02:26.043Z,11.83
2018-04-30T04:05:14.333Z,11.97
2018-04-30T04:07:44.907Z,12.03
2018-04-30T04:10:14.713Z,12.30
2018-04-30T04:12:44.568Z,12.63
2018-04-30T04:15:14.316Z,12.57
2018-04-30T04:17:44.124Z,11.63
2018-04-30T04:20:13.919Z,12.60
2018-04-30T04:22:44.488Z,13.80
2018-04-30T04:25:22.779Z,13.13
2018-04-30T04:27:52.591Z,12.73
2018-04-30T04:30:22.400Z,12.93
2018-04-30T04:32:52.199Z,12.93
2018-04-30T04:35:22.758Z,13.73
2018-04-30T04:37:52.565Z,13.07
2018-04-30T04:40:22.367Z,12.77
2018-04-30T04:42:52.172Z,13.47
2018-04-30T04:45:21.974Z,14.23
2018-04-30T04:47:52.549Z,13.53
2018-04-30T04:50:22.347Z,12.47
2018-04-30T04:52:52.157Z,13.90
2018-04-30T04:55:21.956Z,13.57
2018-04-30T04:57:51.756Z,14.10
2018-04-30T05:00:22.324Z,13.93
2018-04-30T05:02:52.128Z,14.37
2018-04-30T05:05:21.922Z,13.73
2018-04-30T05:07:51.744Z,14.47
2018-04-30T05:10:21.544Z,14.10
2018-04-30T05:12:51.342Z,13.20
2018-04-30T05:15:21.912Z,14.37
2018-04-30T05:17:51.721Z,14.50
2018-04-30T05:20:21.518Z,14.30
2018-04-30T05:22:51.324Z,13.70
2018-04-30T05:25:21.135Z,14.97
2018-04-30T05:27:54.386Z,14.00
2018-04-30T05:30:24.196Z,14.40
2018-04-30T05:32:53.991Z,14.73
2018-04-30T05:35:23.797Z,15.13
2018-04-30T05:37:53.611Z,13.53
2018-04-30T05:40:23.395Z,13.40
2018-04-30T05:42:53.204Z,14.20
2018-04-30T05:45:23.019Z,14.23
2018-04-30T05:47:52.820Z,13.73
2018-04-30T05:50:22.618Z,14.50
2018-04-30T05:52:53.190Z,14.67
2018-04-30T05:55:22.994Z,15.20
2018-04-30T05:57:52.807Z,14.47
2018-04-30T06:00:22.603Z,14.47
2018-04-30T06:02:52.404Z,13.73
2018-04-30T06:05:22.989Z,14.43
2018-04-30T06:07:52.795Z,13.57
2018-04-30T06:10:22.621Z,14.10
2018-04-30T06:12:52.428Z,13.70
2018-04-30T06:15:23.003Z,14.17
2018-04-30T06:17:53.567Z,15.00
2018-04-30T06:20:23.378Z,14.77
2018-04-30T06:22:53.187Z,15.93
2018-04-30T06:25:22.993Z,16.00
2018-04-30T06:27:52.800Z,16.40
2018-04-30T06:30:22.605Z,15.60
2018-04-30T06:32:52.400Z,15.50
2018-04-30T06:35:22.978Z,15.70
2018-04-30T06:37:52.770Z,15.23
2018-04-30T06:40:22.584Z,15.10
2018-04-30T06:42:52.395Z,15.20
2018-04-30T06:45:22.190Z,15.67
2018-04-30T06:47:52.980Z,16.03
2018-04-30T06:50:22.786Z,15.47
2018-04-30T06:52:52.584Z,15.23
2018-04-30T06:55:22.396Z,14.90
2018-04-30T06:57:57.758Z,15.73
2018-04-30T07:00:27.693Z,16.57
2018-04-30T07:02:57.359Z,15.73
2018-04-30T07:05:28.236Z,15.50
2018-04-30T07:07:58.067Z,15.50
2018-04-30T07:10:28.665Z,15.50
2018-04-30T07:12:58.460Z,14.67
2018-04-30T07:15:28.276Z,15.43
2018-04-30T07:17:58.662Z,16.07
2018-04-30T07:20:29.231Z,15.07
2018-04-30T07:22:59.020Z,15.33
2018-04-30T07:25:28.818Z,16.03
2018-04-30T07:27:58.616Z,14.80
2018-04-30T07:30:29.196Z,16.00
2018-04-30T07:32:58.971Z,15.43
2018-04-30T07:35:28.794Z,16.40
2018-04-30T07:37:58.584Z,15.93
2018-04-30T07:40:29.151Z,16.60
2018-04-30T07:42:58.963Z,15.77
2018-04-30T07:45:28.778Z,15.83
2018-04-30T07:47:58.578Z,16.47
2018-04-30T07:50:28.387Z,16.10
2018-04-30T07:52:58.191Z,16.77
2018-04-30T07:55:27.995Z,16.00
2018-04-30T07:57:57.799Z,17.13
2018-04-30T08:00:28.386Z,17.10
2018-04-30T08:02:59.036Z,17.17
2018-04-30T08:05:29.543Z,17.67
2018-04-30T08:07:59.358Z,18.10
2018-04-30T08:10:29.356Z,16.37
2018-04-30T08:12:59.157Z,15.73
2018-04-30T08:15:28.980Z,16.63
2018-04-30T08:17:58.775Z,16.60
2018-04-30T08:20:28.592Z,16.87
2018-04-30T08:22:58.401Z,16.80
2018-04-30T08:25:28.205Z,16.23
2018-04-30T08:27:58.018Z,16.53
2018-04-30T08:30:27.825Z,15.83
2018-04-30T08:32:58.396Z,17.43
2018-04-30T08:35:28.207Z,16.37
2018-04-30T08:37:58.038Z,17.30
2018-04-30T08:40:27.840Z,17.87
2018-04-30T08:42:57.643Z,17.83
2018-04-30T08:45:31.663Z,19.20
2018-04-30T08:48:01.493Z,18.30
2018-04-30T08:50:31.284Z,18.87
2018-04-30T08:53:01.085Z,18.90
2018-04-30T08:55:30.900Z,18.17
2018-04-30T08:58:00.700Z,18.70
2018-04-30T09:00:30.607Z,17.27
2018-04-30T09:03:00.323Z,17.93
2018-04-30T09:05:30.148Z,20.13
2018-04-30T09:07:59.948Z,19.10
2018-04-30T09:10:29.763Z,18.13
2018-04-30T09:12:59.560Z,18.13
2018-04-30T09:15:29.370Z,19.60
2018-04-30T09:17:59.183Z,18.77
2018-04-30T09:20:28.998Z,19.20
2018-04-30T09:22:58.797Z,18.07
2018-04-30T09:25:28.603Z,17.47
2018-04-30T09:27:59.175Z,17.23
2018-04-30T09:30:28.998Z,18.17
2018-04-30T09:32:58.800Z,16.47
2018-04-30T09:35:28.615Z,17.30
2018-04-30T09:37:58.411Z,16.43
2018-04-30T09:40:28.228Z,16.90
2018-04-30T09:42:58.032Z,18.00
2018-04-30T09:45:27.834Z,16.80
2018-04-30T09:47:57.648Z,17.30
2018-04-30T09:50:27.507Z,15.50
2018-04-30T09:52:57.335Z,15.70
2018-04-30T09:55:27.172Z,16.10
2018-04-30T09:57:57.050Z,15.57
2018-04-30T10:00:26.854Z,16.27
2018-04-30T10:02:56.628Z,16.37
2018-04-30T10:05:26.442Z,18.57
2018-04-30T10:07:56.280Z,18.13
2018-04-30T10:10:26.848Z,17.33
2018-04-30T10:12:57.407Z,16.20
2018-04-30T10:15:27.577Z,16.13
2018-04-30T10:17:57.527Z,16.33
2018-04-30T10:20:28.104Z,15.90
2018-04-30T10:23:05.664Z,16.77
2018-04-30T10:25:35.536Z,16.70
2018-04-30T10:28:05.328Z,16.83
2018-04-30T10:30:35.160Z,17.57
2018-04-30T10:33:05.297Z,18.73
2018-04-30T10:35:35.089Z,19.93
2018-04-30T10:38:04.908Z,20.83
2018-04-30T10:40:34.697Z,20.13
2018-04-30T10:43:04.493Z,21.07
2018-04-30T10:45:34.293Z,21.87
2018-04-30T10:48:04.191Z,21.40
2018-04-30T10:50:34.007Z,21.00
2018-04-30T10:53:03.796Z,20.80
2018-04-30T10:55:34.387Z,21.83
2018-04-30T10:58:04.197Z,25.50
2018-04-30T11:00:34.005Z,25.03
2018-04-30T11:03:03.825Z,23.83
2018-04-30T11:05:33.619Z,22.23
2018-04-30T11:08:03.407Z,21.83
2018-04-30T11:10:33.207Z,21.23
2018-04-30T11:13:03.772Z,21.63
2018-04-30T11:15:33.605Z,20.60
2018-04-30T11:18:03.400Z,21.17
2018-04-30T11:20:33.230Z,21.03
2018-04-30T11:23:03.035Z,20.47
2018-04-30T11:25:32.860Z,19.23
2018-04-30T11:28:02.648Z,18.20
2018-04-30T11:30:32.442Z,18.67
2018-04-30T11:33:02.251Z,18.30
2018-04-30T11:35:32.050Z,17.93
2018-04-30T11:38:02.631Z,19.03
2018-04-30T11:40:32.445Z,18.57
2018-04-30T11:43:02.265Z,20.93
2018-04-30T11:45:32.071Z,20.63
2018-04-30T11:48:01.887Z,20.63
2018-04-30T11:50:31.708Z,18.10
2018-04-30T11:53:01.522Z,15.67
2018-04-30T11:55:31.331Z,15.03
2018-04-30T11:58:01.147Z,14.43
2018-04-30T12:00:30.947Z,14.57
2018-04-30T12:03:00.761Z,15.03
2018-04-30T12:05:30.568Z,14.73
2018-04-30T12:08:00.392Z,15.57
2018-04-30T12:10:30.201Z,15.20
2018-04-30T12:13:00.021Z,15.80
2018-04-30T12:15:29.844Z,15.90
2018-04-30T12:17:59.659Z,16.33
2018-04-30T12:20:29.475Z,17.03
2018-04-30T12:22:59.296Z,15.10
2018-04-30T12:25:29.316Z,13.13
2018-04-30T12:27:59.905Z,13.30
2018-04-30T12:30:29.705Z,11.53
2018-04-30T12:32:59.771Z,10.40
2018-04-30T12:35:29.583Z,6.80
2018-04-30T12:38:04.504Z,5.60
2018-04-30T12:40:34.313Z,3.90
2018-04-30T12:43:04.228Z,3.10
2018-04-30T12:45:34.224Z,2.70
2018-04-30T12:48:04.077Z,2.90
2018-04-30T12:50:33.912Z,2.60
2018-04-30T12:53:03.774Z,3.40
2018-04-30T12:55:33.665Z,3.77
2018-04-30T12:58:03.469Z,4.37
2018-04-30T13:00:33.267Z,4.73
2018-04-30T13:03:03.235Z,4.30
2018-04-30T13:05:33.025Z,4.57
2018-04-30T13:08:03.596Z,3.30
2018-04-30T13:10:41.279Z,3.07
2018-04-30T13:13:11.461Z,2.80
2018-04-30T13:15:41.298Z,3.40
2018-04-30T13:18:11.098Z,3.27
2018-04-30T13:20:40.980Z,3.10
2018-04-30T13:23:10.785Z,2.83
2018-04-30T13:25:53.107Z,2.80
2018-04-30T13:28:24.397Z,2.60
2018-04-30T13:30:54.851Z,2.20
2018-04-30T13:33:24.703Z,2.00
2018-04-30T13:36:02.161Z,2.40
2018-04-30T13:38:32.741Z,2.10
2018-04-30T13:41:02.552Z,2.10
2018-04-30T13:43:32.361Z,2.47
2018-04-30T13:46:02.142Z,2.10
2018-04-30T13:48:31.945Z,2.20
2018-04-30T13:51:01.737Z,2.40
2018-04-30T13:53:32.313Z,1.87
2018-04-30T13:56:02.159Z,1.67
2018-04-30T13:58:32.379Z,1.80
2018-04-30T14:01:02.345Z,1.40
2018-04-30T14:03:32.165Z,1.30
2018-04-30T14:06:01.961Z,0.90
2018-04-30T14:08:32.526Z,1.00
2018-04-30T14:11:02.327Z,1.00
2018-04-30T14:13:32.132Z,1.30
2018-04-30T14:16:01.940Z,0.80
2018-04-30T14:18:32.480Z,0.90
2018-04-30T14:21:02.276Z,1.20
2018-04-30T14:23:32.090Z,1.00
2018-04-30T14:26:01.878Z,1.10
2018-04-30T14:28:32.445Z,1.20
2018-04-30T14:31:02.232Z,1.00
2018-04-30T14:33:32.803Z,0.90
2018-04-30T14:36:02.603Z,1.10
2018-04-30T14:38:32.408Z,0.90
2018-04-30T14:41:02.211Z,1.00
2018-04-30T14:43:32.012Z,0.80
2018-04-30T14:46:01.817Z,1.10
2018-04-30T14:48:32.390Z,0.87
2018-04-30T14:51:02.183Z,0.90
2018-04-30T14:53:31.987Z,0.80
2018-04-30T14:56:01.783Z,0.77
2018-04-30T14:58:32.359Z,0.80
2018-04-30T15:01:02.166Z,0.80
2018-04-30T15:03:31.974Z,0.80
2018-04-30T15:06:01.763Z,0.70
2018-04-30T15:08:31.575Z,0.60
2018-04-30T15:11:01.359Z,0.70
2018-04-30T15:13:31.198Z,0.70
2018-04-30T15:16:00.967Z,0.40
2018-04-30T15:18:30.955Z,0.60
2018-04-30T15:21:00.878Z,0.50
2018-04-30T15:23:30.828Z,0.57
2018-04-30T15:26:00.750Z,0.70
2018-04-30T15:28:30.527Z,0.47
2018-04-30T15:31:00.321Z,0.80
2018-04-30T15:33:30.121Z,0.57
2018-04-30T15:36:00.008Z,0.60
2018-04-30T15:38:29.729Z,0.80
2018-04-30T15:41:00.292Z,0.40
2018-04-30T15:43:30.090Z,0.70
2018-04-30T15:45:59.890Z,0.70
2018-04-30T15:48:29.699Z,0.63
2018-04-30T15:51:00.247Z,0.87
2018-04-30T15:53:30.049Z,0.90
2018-04-30T15:55:59.852Z,0.90
2018-04-30T15:58:29.713Z,0.70
2018-04-30T16:00:59.501Z,0.60
2018-04-30T16:03:29.304Z,0.83
2018-04-30T16:05:59.117Z,0.50
2018-04-30T16:08:28.929Z,0.50
2018-04-30T16:10:58.748Z,0.50
2018-04-30T16:13:28.539Z,0.70
2018-04-30T16:15:58.336Z,0.60
2018-04-30T16:18:28.904Z,0.50
2018-04-30T16:20:58.709Z,0.40
2018-04-30T16:23:28.518Z,0.50
2018-04-30T16:25:58.312Z,0.60
2018-04-30T16:28:28.135Z,0.40
2018-04-30T16:30:57.937Z,0.40
2018-04-30T16:33:27.737Z,0.60
2018-04-30T16:35:58.383Z,0.27
2018-04-30T16:38:28.107Z,0.33
2018-04-30T16:40:57.919Z,0.53
2018-04-30T16:43:27.713Z,0.43
2018-04-30T16:45:58.284Z,0.43
2018-04-30T16:48:28.080Z,0.37
2018-04-30T16:50:57.884Z,0.57
2018-04-30T16:53:27.689Z,0.30
2018-04-30T16:55:57.505Z,0.37
2018-04-30T16:58:27.321Z,0.60
2018-04-30T17:00:57.863Z,0.50
2018-04-30T17:03:27.697Z,0.50
2018-04-30T17:05:57.484Z,0.40
2018-04-30T17:08:27.275Z,0.70
2018-04-30T17:10:57.075Z,1.20
2018-04-30T17:13:27.662Z,1.23
2018-04-30T17:15:57.481Z,0.60
2018-04-30T17:18:27.255Z,0.50
2018-04-30T17:20:57.060Z,0.60
2018-04-30T17:23:26.857Z,0.40
2018-04-30T17:25:57.416Z,0.50
2018-04-30T17:28:27.208Z,0.80
2018-04-30T17:30:58.936Z,0.53
2018-04-30T17:33:28.748Z,0.80
2018-04-30T17:35:58.542Z,0.60
2018-04-30T17:38:28.343Z,0.60
2018-04-30T17:40:58.259Z,0.70
2018-04-30T17:43:27.977Z,0.43
2018-04-30T17:45:57.789Z,0.60
2018-04-30T17:48:27.590Z,0.60
2018-04-30T17:51:03.193Z,0.70
2018-04-30T17:53:32.984Z,0.80
2018-04-30T17:56:02.782Z,0.70
2018-04-30T17:58:32.589Z,0.50
2018-04-30T18:01:02.390Z,0.60
2018-04-30T18:03:32.181Z,0.73
2018-04-30T18:06:01.981Z,0.70
2018-04-30T18:08:31.907Z,0.70
2018-04-30T18:11:01.867Z,0.70
2018-04-30T18:13:31.784Z,0.80
2018-04-30T18:16:01.565Z,0.80
2018-04-30T18:18:31.361Z,0.80
2018-04-30T18:21:01.156Z,1.30
2018-04-30T18:23:31.098Z,1.17
2018-04-30T18:26:00.875Z,1.10
2018-04-30T18:28:30.667Z,1.30
2018-04-30T18:31:01.235Z,1.13
2018-04-30T18:33:31.028Z,1.10
2018-04-30T18:36:00.821Z,1.10
2018-04-30T18:38:31.380Z,1.00
2018-04-30T18:41:01.186Z,0.90
2018-04-30T18:43:30.980Z,1.03
2018-04-30T18:46:01.549Z,0.90
2018-04-30T18:48:31.343Z,0.90
2018-04-30T18:51:01.166Z,0.97
2018-04-30T18:53:30.960Z,0.67
2018-04-30T18:56:00.761Z,0.70
2018-04-30T18:58:33.095Z,0.97
2018-04-30T19:01:02.894Z,1.03
2018-04-30T19:03:32.701Z,0.90
2018-04-30T19:06:02.507Z,0.70
2018-04-30T19:08:32.299Z,0.70
2018-04-30T19:11:02.108Z,1.07
2018-04-30T19:13:31.904Z,1.10
2018-04-30T19:16:02.469Z,2.00
2018-04-30T19:18:32.267Z,0.70
2018-04-30T19:21:02.078Z,0.90
2018-04-30T19:23:31.872Z,0.50
2018-04-30T19:26:02.442Z,0.60
2018-04-30T19:28:37.279Z,0.70
2018-04-30T19:31:07.089Z,0.60
2018-04-30T19:33:36.895Z,0.77
2018-04-30T19:36:06.699Z,0.60
2018-04-30T19:38:36.493Z,0.50
2018-04-30T19:41:06.295Z,0.67
2018-04-30T19:43:36.864Z,0.70
2018-04-30T19:46:06.667Z,0.83
2018-04-30T19:48:36.468Z,0.70
2018-04-30T19:51:06.287Z,0.70
2018-04-30T19:53:36.079Z,0.80
2018-04-30T19:56:05.909Z,0.90
2018-04-30T19:58:36.464Z,0.80
2018-04-30T20:01:06.468Z,0.90
2018-04-30T20:03:36.235Z,0.87
2018-04-30T20:06:06.804Z,1.00
2018-04-30T20:08:36.601Z,1.03
2018-04-30T20:11:06.391Z,0.70
2018-04-30T20:13:36.970Z,0.80
2018-04-30T20:16:06.772Z,0.90
2018-04-30T20:18:36.566Z,0.80
2018-04-30T20:21:06.379Z,0.90
2018-04-30T20:23:36.176Z,1.00
2018-04-30T20:26:06.822Z,0.97
2018-04-30T20:28:36.543Z,0.80
2018-04-30T20:31:06.346Z,1.10
2018-04-30T20:33:36.270Z,0.80
2018-04-30T20:36:06.065Z,0.90
2018-04-30T20:38:36.628Z,1.00
2018-04-30T20:41:06.427Z,0.77
2018-04-30T20:43:36.224Z,0.90
2018-04-30T20:46:06.023Z,1.00
2018-04-30T20:48:36.589Z,0.90
2018-04-30T20:51:06.391Z,0.80
2018-04-30T20:53:36.195Z,0.90
2018-04-30T20:56:05.986Z,1.13
2018-04-30T20:58:36.549Z,0.90
2018-04-30T21:01:06.360Z,0.90
2018-04-30T21:03:36.147Z,1.20
2018-04-30T21:06:05.960Z,1.00
2018-04-30T21:08:54.216Z,0.90
2018-04-30T21:11:24.023Z,0.87
2018-04-30T21:13:53.819Z,0.83
2018-04-30T21:16:24.388Z,0.90
2018-04-30T21:18:54.184Z,0.80
2018-04-30T21:21:23.999Z,0.90
2018-04-30T21:23:53.798Z,0.87
2018-04-30T21:26:24.355Z,0.87
2018-04-30T21:28:54.152Z,0.90
2018-04-30T21:31:23.956Z,0.80
2018-04-30T21:33:53.750Z,0.80
2018-04-30T21:36:24.319Z,0.90
2018-04-30T21:38:54.119Z,0.90
2018-04-30T21:41:23.917Z,0.83
2018-04-30T21:43:53.703Z,0.90
2018-04-30T21:46:23.512Z,1.20
2018-04-30T21:48:53.303Z,0.80
2018-04-30T21:51:23.099Z,0.80
2018-04-30T21:53:52.966Z,0.70
2018-04-30T21:56:22.714Z,0.90
2018-04-30T21:58:52.500Z,0.80
2018-04-30T22:01:22.302Z,0.90
2018-04-30T22:03:52.869Z,0.97
2018-04-30T22:06:22.669Z,0.87
2018-04-30T22:08:52.463Z,0.97
2018-04-30T22:11:22.257Z,0.83
2018-04-30T22:13:52.830Z,0.83
2018-04-30T22:16:22.611Z,0.90
2018-04-30T22:18:53.184Z,0.90
2018-04-30T22:21:22.972Z,0.70
2018-04-30T22:23:52.772Z,0.80
2018-04-30T22:26:22.578Z,1.00
2018-04-30T22:28:53.140Z,0.90
2018-04-30T22:31:22.932Z,0.90
2018-04-30T22:33:52.735Z,1.07
2018-04-30T22:36:22.526Z,1.03
2018-04-30T22:38:53.131Z,1.20
2018-04-30T22:41:22.928Z,1.17
2018-04-30T22:43:52.738Z,1.20
2018-04-30T22:46:22.541Z,1.20
2018-04-30T22:48:52.334Z,1.10
2018-04-30T22:51:22.124Z,1.03
2018-04-30T22:53:52.700Z,1.00
2018-04-30T22:56:22.500Z,1.00
2018-04-30T22:58:52.304Z,1.10
2018-04-30T23:01:22.097Z,1.20
2018-04-30T23:03:52.715Z,1.00
2018-04-30T23:06:23.090Z,1.13
2018-04-30T23:08:53.024Z,1.10
2018-04-30T23:11:22.811Z,1.40
2018-04-30T23:13:52.616Z,0.90
2018-04-30T23:16:22.417Z,0.90
2018-04-30T23:18:52.215Z,1.00
2018-04-30T23:21:22.771Z,1.00
2018-04-30T23:23:52.617Z,0.90
2018-04-30T23:26:22.388Z,1.13
2018-04-30T23:28:52.193Z,1.13
2018-04-30T23:31:21.989Z,1.43
2018-04-30T23:33:52.572Z,1.20
2018-04-30T23:36:22.363Z,1.20
2018-04-30T23:38:52.164Z,1.00
2018-04-30T23:41:21.967Z,1.03
2018-04-30T23:43:52.523Z,1.20
2018-04-30T23:46:22.322Z,1.20
2018-04-30T23:48:52.172Z,1.13
2018-04-30T23:51:21.948Z,1.37
2018-04-30T23:53:51.746Z,1.10
2018-04-30T23:56:21.539Z,1.20
2018-04-30T23:58:52.126Z,1.10
